sensor_id;sensor_type;location;lat;lon;timestamp;temperature;humidity
13072;DHT22;6602;58.934;11.166;2023-04-24T00:01:30;7.80;99.90
13072;DHT22;6602;58.934;11.166;2023-04-24T00:06:32;7.90;99.90
13072;DHT22;6602;58.934;11.166;2023-04-24T00:11:36;7.90;99.90
13072;DHT22;6602;58.934;11.166;2023-04-24T00:16:36;8.00;99.90
13072;DHT22;6602;58.934;11.166;2023-04-24T00:21:37;8.00;99.90
13072;DHT22;6602;58.934;11.166;2023-04-24T00:26:38;8.10;99.90
13072;DHT22;6602;58.934;11.166;2023-04-24T00:31:39;8.10;99.90
13072;DHT22;6602;58.934;11.166;2023-04-24T00:36:40;8.10;99.90
13072;DHT22;6602;58.934;11.166;2023-04-24T00:41:42;8.00;99.90
13072;DHT22;6602;58.934;11.166;2023-04-24T00:46:43;8.00;99.90
13072;DHT22;6602;58.934;11.166;2023-04-24T00:51:47;8.00;99.90
13072;DHT22;6602;58.934;11.166;2023-04-24T00:56:49;8.00;99.90
13072;DHT22;6602;58.934;11.166;2023-04-24T01:01:51;8.00;99.90
13072;DHT22;6602;58.934;11.166;2023-04-24T01:06:54;7.90;99.90
13072;DHT22;6602;58.934;11.166;2023-04-24T01:11:56;7.90;99.90
13072;DHT22;6602;58.934;11.166;2023-04-24T01:17:12;8.00;99.90
13072;DHT22;6602;58.934;11.166;2023-04-24T01:22:16;8.00;99.90
13072;DHT22;6602;58.934;11.166;2023-04-24T01:27:17;8.00;99.90
13072;DHT22;6602;58.934;11.166;2023-04-24T01:32:18;8.10;99.90
13072;DHT22;6602;58.934;11.166;2023-04-24T01:37:19;8.10;99.90
13072;DHT22;6602;58.934;11.166;2023-04-24T01:42:22;8.10;99.90
13072;DHT22;6602;58.934;11.166;2023-04-24T01:47:24;8.00;99.90
13072;DHT22;6602;58.934;11.166;2023-04-24T01:52:25;8.00;99.90
13072;DHT22;6602;58.934;11.166;2023-04-24T01:57:33;8.00;99.90
13072;DHT22;6602;58.934;11.166;2023-04-24T02:02:34;7.90;99.90
13072;DHT22;6602;58.934;11.166;2023-04-24T02:07:35;7.90;99.90
13072;DHT22;6602;58.934;11.166;2023-04-24T02:12:36;7.90;99.90
13072;DHT22;6602;58.934;11.166;2023-04-24T02:17:37;7.80;99.90
13072;DHT22;6602;58.934;11.166;2023-04-24T02:22:41;7.80;99.90
13072;DHT22;6602;58.934;11.166;2023-04-24T02:27:42;7.80;99.90
13072;DHT22;6602;58.934;11.166;2023-04-24T02:32:44;7.80;99.90
13072;DHT22;6602;58.934;11.166;2023-04-24T02:37:45;7.70;99.90
13072;DHT22;6602;58.934;11.166;2023-04-24T02:42:46;7.70;99.90
13072;DHT22;6602;58.934;11.166;2023-04-24T02:47:50;7.80;99.90
13072;DHT22;6602;58.934;11.166;2023-04-24T02:52:50;7.70;99.90
13072;DHT22;6602;58.934;11.166;2023-04-24T02:57:52;7.70;99.90
13072;DHT22;6602;58.934;11.166;2023-04-24T03:02:52;7.70;99.90
13072;DHT22;6602;58.934;11.166;2023-04-24T03:07:56;7.70;99.90
13072;DHT22;6602;58.934;11.166;2023-04-24T03:12:57;7.70;99.90
13072;DHT22;6602;58.934;11.166;2023-04-24T03:17:58;7.80;99.90
13072;DHT22;6602;58.934;11.166;2023-04-24T03:22:59;7.80;99.90
13072;DHT22;6602;58.934;11.166;2023-04-24T03:28:00;7.80;99.90
13072;DHT22;6602;58.934;11.166;2023-04-24T03:33:01;7.70;99.90
13072;DHT22;6602;58.934;11.166;2023-04-24T03:38:02;7.60;99.90
13072;DHT22;6602;58.934;11.166;2023-04-24T03:43:07;7.60;99.90
13072;DHT22;6602;58.934;11.166;2023-04-24T03:48:08;7.60;99.90
13072;DHT22;6602;58.934;11.166;2023-04-24T03:53:09;7.60;99.90
13072;DHT22;6602;58.934;11.166;2023-04-24T03:58:10;7.60;99.90
13072;DHT22;6602;58.934;11.166;2023-04-24T04:03:12;7.60;99.90
13072;DHT22;6602;58.934;11.166;2023-04-24T04:08:14;7.60;99.90
13072;DHT22;6602;58.934;11.166;2023-04-24T04:13:16;7.60;99.90
13072;DHT22;6602;58.934;11.166;2023-04-24T04:18:17;7.60;99.90
13072;DHT22;6602;58.934;11.166;2023-04-24T04:23:21;7.70;99.90
13072;DHT22;6602;58.934;11.166;2023-04-24T04:28:22;7.70;99.90
13072;DHT22;6602;58.934;11.166;2023-04-24T04:33:26;7.70;99.90
13072;DHT22;6602;58.934;11.166;2023-04-24T04:38:27;7.70;99.90
13072;DHT22;6602;58.934;11.166;2023-04-24T04:43:30;7.70;99.90
13072;DHT22;6602;58.934;11.166;2023-04-24T04:48:31;7.70;99.90
13072;DHT22;6602;58.934;11.166;2023-04-24T04:53:32;7.70;99.90
13072;DHT22;6602;58.934;11.166;2023-04-24T04:58:33;7.70;99.90
13072;DHT22;6602;58.934;11.166;2023-04-24T05:03:33;7.80;99.90
13072;DHT22;6602;58.934;11.166;2023-04-24T05:08:34;7.80;99.90
13072;DHT22;6602;58.934;11.166;2023-04-24T05:13:35;7.90;99.90
13072;DHT22;6602;58.934;11.166;2023-04-24T05:18:54;7.90;99.90
13072;DHT22;6602;58.934;11.166;2023-04-24T05:23:55;8.00;99.90
13072;DHT22;6602;58.934;11.166;2023-04-24T05:28:56;8.00;99.90
13072;DHT22;6602;58.934;11.166;2023-04-24T05:33:57;8.10;99.90
13072;DHT22;6602;58.934;11.166;2023-04-24T05:38:57;8.20;99.90
13072;DHT22;6602;58.934;11.166;2023-04-24T05:44:05;8.40;99.90
13072;DHT22;6602;58.934;11.166;2023-04-24T05:49:06;8.50;99.90
13072;DHT22;6602;58.934;11.166;2023-04-24T05:54:09;8.60;99.90
13072;DHT22;6602;58.934;11.166;2023-04-24T05:59:12;8.60;99.90
13072;DHT22;6602;58.934;11.166;2023-04-24T06:04:28;8.80;99.90
13072;DHT22;6602;58.934;11.166;2023-04-24T06:09:34;8.90;99.90
13072;DHT22;6602;58.934;11.166;2023-04-24T06:14:35;9.00;99.90
13072;DHT22;6602;58.934;11.166;2023-04-24T06:19:36;9.00;99.90
13072;DHT22;6602;58.934;11.166;2023-04-24T06:24:37;9.10;99.90
13072;DHT22;6602;58.934;11.166;2023-04-24T06:29:49;9.10;99.90
13072;DHT22;6602;58.934;11.166;2023-04-24T06:34:54;9.00;99.90
13072;DHT22;6602;58.934;11.166;2023-04-24T06:39:55;9.00;99.90
13072;DHT22;6602;58.934;11.166;2023-04-24T06:44:56;9.10;99.90
13072;DHT22;6602;58.934;11.166;2023-04-24T06:50:00;9.10;99.90
13072;DHT22;6602;58.934;11.166;2023-04-24T06:55:02;9.20;99.90
13072;DHT22;6602;58.934;11.166;2023-04-24T07:00:04;9.20;99.90
13072;DHT22;6602;58.934;11.166;2023-04-24T07:05:10;9.30;99.90
13072;DHT22;6602;58.934;11.166;2023-04-24T07:10:14;9.30;99.90
13072;DHT22;6602;58.934;11.166;2023-04-24T07:15:16;9.30;99.90
13072;DHT22;6602;58.934;11.166;2023-04-24T07:20:33;9.30;99.90
13072;DHT22;6602;58.934;11.166;2023-04-24T07:25:42;9.50;99.90
13072;DHT22;6602;58.934;11.166;2023-04-24T07:30:43;9.60;99.90
13072;DHT22;6602;58.934;11.166;2023-04-24T07:35:48;9.50;99.90
13072;DHT22;6602;58.934;11.166;2023-04-24T07:40:51;9.50;99.90
13072;DHT22;6602;58.934;11.166;2023-04-24T07:45:52;9.60;99.90
13072;DHT22;6602;58.934;11.166;2023-04-24T07:50:54;9.60;99.90
13072;DHT22;6602;58.934;11.166;2023-04-24T07:55:56;9.50;99.90
13072;DHT22;6602;58.934;11.166;2023-04-24T08:00:57;9.50;99.90
13072;DHT22;6602;58.934;11.166;2023-04-24T08:05:59;9.60;99.90
13072;DHT22;6602;58.934;11.166;2023-04-24T08:11:00;9.60;99.90
13072;DHT22;6602;58.934;11.166;2023-04-24T08:16:01;9.60;99.90
13072;DHT22;6602;58.934;11.166;2023-04-24T08:21:02;9.60;99.90
13072;DHT22;6602;58.934;11.166;2023-04-24T08:26:03;9.60;99.90
13072;DHT22;6602;58.934;11.166;2023-04-24T08:31:04;9.60;99.90
13072;DHT22;6602;58.934;11.166;2023-04-24T08:36:08;9.70;99.90
13072;DHT22;6602;58.934;11.166;2023-04-24T08:41:09;9.80;99.90
13072;DHT22;6602;58.934;11.166;2023-04-24T08:46:13;9.80;99.90
13072;DHT22;6602;58.934;11.166;2023-04-24T08:51:17;9.80;99.90
13072;DHT22;6602;58.934;11.166;2023-04-24T08:56:22;9.80;99.90
13072;DHT22;6602;58.934;11.166;2023-04-24T09:01:26;9.80;99.90
13072;DHT22;6602;58.934;11.166;2023-04-24T09:06:30;9.90;99.90
13072;DHT22;6602;58.934;11.166;2023-04-24T09:11:32;9.90;99.90
13072;DHT22;6602;58.934;11.166;2023-04-24T09:16:36;9.90;99.90
13072;DHT22;6602;58.934;11.166;2023-04-24T09:21:37;9.80;99.90
13072;DHT22;6602;58.934;11.166;2023-04-24T09:26:38;9.80;99.90
13072;DHT22;6602;58.934;11.166;2023-04-24T09:31:40;9.80;99.90
13072;DHT22;6602;58.934;11.166;2023-04-24T09:36:44;9.90;99.90
13072;DHT22;6602;58.934;11.166;2023-04-24T09:41:54;9.80;99.90
13072;DHT22;6602;58.934;11.166;2023-04-24T09:46:59;9.70;99.90
13072;DHT22;6602;58.934;11.166;2023-04-24T09:52:06;9.70;99.90
13072;DHT22;6602;58.934;11.166;2023-04-24T09:57:08;9.70;99.90
13072;DHT22;6602;58.934;11.166;2023-04-24T10:02:19;9.70;99.90
13072;DHT22;6602;58.934;11.166;2023-04-24T10:07:20;9.70;99.90
13072;DHT22;6602;58.934;11.166;2023-04-24T10:12:21;9.70;99.90
13072;DHT22;6602;58.934;11.166;2023-04-24T10:17:26;9.70;99.90
13072;DHT22;6602;58.934;11.166;2023-04-24T10:22:28;9.80;99.90
13072;DHT22;6602;58.934;11.166;2023-04-24T10:27:32;9.80;99.90
13072;DHT22;6602;58.934;11.166;2023-04-24T10:32:33;9.80;99.90
13072;DHT22;6602;58.934;11.166;2023-04-24T10:37:43;9.90;99.90
13072;DHT22;6602;58.934;11.166;2023-04-24T10:42:48;9.80;99.90
13072;DHT22;6602;58.934;11.166;2023-04-24T10:47:58;9.80;99.90
13072;DHT22;6602;58.934;11.166;2023-04-24T10:53:08;9.80;99.90
13072;DHT22;6602;58.934;11.166;2023-04-24T10:58:12;9.70;99.90
13072;DHT22;6602;58.934;11.166;2023-04-24T11:03:25;9.70;99.90
13072;DHT22;6602;58.934;11.166;2023-04-24T11:19:08;9.70;99.90
13072;DHT22;6602;58.934;11.166;2023-04-24T11:34:48;9.60;99.90
13072;DHT22;6602;58.934;11.166;2023-04-24T11:39:56;9.60;99.90
13072;DHT22;6602;58.934;11.166;2023-04-24T11:45:00;9.50;99.90
13072;DHT22;6602;58.934;11.166;2023-04-24T11:50:07;9.40;99.90
13072;DHT22;6602;58.934;11.166;2023-04-24T12:00:22;9.30;99.90
13072;DHT22;6602;58.934;11.166;2023-04-24T12:05:40;9.40;99.90
13072;DHT22;6602;58.934;11.166;2023-04-24T12:10:41;9.40;99.90
13072;DHT22;6602;58.934;11.166;2023-04-24T12:15:50;9.40;99.90
13072;DHT22;6602;58.934;11.166;2023-04-24T12:20:51;9.40;99.90
13072;DHT22;6602;58.934;11.166;2023-04-24T12:26:00;9.40;99.90
13072;DHT22;6602;58.934;11.166;2023-04-24T12:31:02;9.40;99.90
13072;DHT22;6602;58.934;11.166;2023-04-24T12:36:12;9.50;99.90
13072;DHT22;6602;58.934;11.166;2023-04-24T12:41:15;9.60;99.90
13072;DHT22;6602;58.934;11.166;2023-04-24T12:46:16;9.70;99.90
13072;DHT22;6602;58.934;11.166;2023-04-24T12:51:20;9.80;99.90
13072;DHT22;6602;58.934;11.166;2023-04-24T12:56:22;9.80;99.90
13072;DHT22;6602;58.934;11.166;2023-04-24T13:01:27;9.80;99.90
13072;DHT22;6602;58.934;11.166;2023-04-24T13:06:28;9.80;99.90
13072;DHT22;6602;58.934;11.166;2023-04-24T13:11:34;9.70;99.90
13072;DHT22;6602;58.934;11.166;2023-04-24T13:16:38;9.70;99.90
13072;DHT22;6602;58.934;11.166;2023-04-24T13:21:40;9.80;99.90
13072;DHT22;6602;58.934;11.166;2023-04-24T13:26:50;9.80;99.90
13072;DHT22;6602;58.934;11.166;2023-04-24T13:31:54;9.80;99.90
13072;DHT22;6602;58.934;11.166;2023-04-24T13:36:58;9.80;99.90
13072;DHT22;6602;58.934;11.166;2023-04-24T13:41:59;9.70;99.90
13072;DHT22;6602;58.934;11.166;2023-04-24T13:47:00;9.70;99.90
13072;DHT22;6602;58.934;11.166;2023-04-24T13:52:03;9.60;99.90
13072;DHT22;6602;58.934;11.166;2023-04-24T13:57:07;9.60;99.90
13072;DHT22;6602;58.934;11.166;2023-04-24T14:02:08;9.50;99.90
13072;DHT22;6602;58.934;11.166;2023-04-24T14:07:08;9.50;99.90
13072;DHT22;6602;58.934;11.166;2023-04-24T14:12:09;9.50;99.90
13072;DHT22;6602;58.934;11.166;2023-04-24T14:17:13;9.40;99.90
13072;DHT22;6602;58.934;11.166;2023-04-24T14:22:16;9.40;99.90
13072;DHT22;6602;58.934;11.166;2023-04-24T14:27:20;9.40;99.90
13072;DHT22;6602;58.934;11.166;2023-04-24T14:32:21;9.40;99.90
13072;DHT22;6602;58.934;11.166;2023-04-24T14:37:22;9.50;99.90
13072;DHT22;6602;58.934;11.166;2023-04-24T14:42:23;9.50;99.90
13072;DHT22;6602;58.934;11.166;2023-04-24T14:47:23;9.50;99.90
13072;DHT22;6602;58.934;11.166;2023-04-24T14:52:27;9.60;99.90
13072;DHT22;6602;58.934;11.166;2023-04-24T14:57:28;9.50;99.90
13072;DHT22;6602;58.934;11.166;2023-04-24T15:02:35;9.50;99.90
13072;DHT22;6602;58.934;11.166;2023-04-24T15:07:40;9.50;99.90
13072;DHT22;6602;58.934;11.166;2023-04-24T15:12:51;9.50;99.90
13072;DHT22;6602;58.934;11.166;2023-04-24T15:17:52;9.50;99.90
13072;DHT22;6602;58.934;11.166;2023-04-24T15:22:52;9.50;99.90
13072;DHT22;6602;58.934;11.166;2023-04-24T15:27:53;9.50;99.90
13072;DHT22;6602;58.934;11.166;2023-04-24T15:32:55;9.50;99.90
13072;DHT22;6602;58.934;11.166;2023-04-24T15:37:56;9.50;99.90
13072;DHT22;6602;58.934;11.166;2023-04-24T15:42:59;9.60;99.90
13072;DHT22;6602;58.934;11.166;2023-04-24T15:48:00;9.60;99.90
13072;DHT22;6602;58.934;11.166;2023-04-24T15:53:05;9.60;99.90
13072;DHT22;6602;58.934;11.166;2023-04-24T15:58:08;9.60;99.90
13072;DHT22;6602;58.934;11.166;2023-04-24T16:03:09;9.60;99.90
13072;DHT22;6602;58.934;11.166;2023-04-24T16:08:10;9.50;99.90
13072;DHT22;6602;58.934;11.166;2023-04-24T16:13:17;9.50;99.90
13072;DHT22;6602;58.934;11.166;2023-04-24T16:18:18;9.50;99.90
13072;DHT22;6602;58.934;11.166;2023-04-24T16:23:20;9.50;99.90
13072;DHT22;6602;58.934;11.166;2023-04-24T16:28:22;9.50;99.90
13072;DHT22;6602;58.934;11.166;2023-04-24T16:33:22;9.50;99.90
13072;DHT22;6602;58.934;11.166;2023-04-24T16:38:26;9.50;99.90
13072;DHT22;6602;58.934;11.166;2023-04-24T16:43:42;9.40;99.90
13072;DHT22;6602;58.934;11.166;2023-04-24T16:48:43;9.40;99.90
13072;DHT22;6602;58.934;11.166;2023-04-24T16:53:43;9.40;99.90
13072;DHT22;6602;58.934;11.166;2023-04-24T16:58:46;9.40;99.90
13072;DHT22;6602;58.934;11.166;2023-04-24T17:04:00;9.40;99.90
13072;DHT22;6602;58.934;11.166;2023-04-24T17:09:01;9.40;99.90
13072;DHT22;6602;58.934;11.166;2023-04-24T17:14:03;9.40;99.90
13072;DHT22;6602;58.934;11.166;2023-04-24T17:19:06;9.40;99.90
13072;DHT22;6602;58.934;11.166;2023-04-24T17:24:07;9.40;99.90
13072;DHT22;6602;58.934;11.166;2023-04-24T17:29:08;9.30;99.90
13072;DHT22;6602;58.934;11.166;2023-04-24T17:34:09;9.40;99.90
13072;DHT22;6602;58.934;11.166;2023-04-24T17:39:10;9.40;99.90
13072;DHT22;6602;58.934;11.166;2023-04-24T17:44:11;9.40;99.90
13072;DHT22;6602;58.934;11.166;2023-04-24T17:49:12;9.40;99.90
13072;DHT22;6602;58.934;11.166;2023-04-24T17:54:13;9.30;99.90
13072;DHT22;6602;58.934;11.166;2023-04-24T17:59:17;9.40;99.90
13072;DHT22;6602;58.934;11.166;2023-04-24T18:04:18;9.40;99.90
13072;DHT22;6602;58.934;11.166;2023-04-24T18:09:19;9.40;99.90
13072;DHT22;6602;58.934;11.166;2023-04-24T18:14:21;9.40;99.90
13072;DHT22;6602;58.934;11.166;2023-04-24T18:19:22;9.40;99.90
13072;DHT22;6602;58.934;11.166;2023-04-24T18:24:23;9.50;99.90
13072;DHT22;6602;58.934;11.166;2023-04-24T18:29:24;9.50;99.90
13072;DHT22;6602;58.934;11.166;2023-04-24T18:34:25;9.50;99.90
13072;DHT22;6602;58.934;11.166;2023-04-24T18:39:27;9.50;99.90
13072;DHT22;6602;58.934;11.166;2023-04-24T18:44:28;9.60;99.90
13072;DHT22;6602;58.934;11.166;2023-04-24T18:49:29;9.60;99.90
13072;DHT22;6602;58.934;11.166;2023-04-24T18:54:30;9.60;99.90
13072;DHT22;6602;58.934;11.166;2023-04-24T18:59:31;9.60;99.90
13072;DHT22;6602;58.934;11.166;2023-04-24T19:04:33;9.60;99.90
13072;DHT22;6602;58.934;11.166;2023-04-24T19:09:36;9.60;99.90
13072;DHT22;6602;58.934;11.166;2023-04-24T19:14:37;9.60;99.90
13072;DHT22;6602;58.934;11.166;2023-04-24T19:19:38;9.60;99.90
13072;DHT22;6602;58.934;11.166;2023-04-24T19:24:39;9.60;99.90
13072;DHT22;6602;58.934;11.166;2023-04-24T19:29:46;9.60;99.90
13072;DHT22;6602;58.934;11.166;2023-04-24T19:34:47;9.60;99.90
13072;DHT22;6602;58.934;11.166;2023-04-24T19:39:48;9.50;99.90
13072;DHT22;6602;58.934;11.166;2023-04-24T19:44:49;9.50;99.90
13072;DHT22;6602;58.934;11.166;2023-04-24T19:49:50;9.50;99.90
13072;DHT22;6602;58.934;11.166;2023-04-24T19:54:51;9.50;99.90
13072;DHT22;6602;58.934;11.166;2023-04-24T19:59:52;9.50;99.90
13072;DHT22;6602;58.934;11.166;2023-04-24T20:04:55;9.50;99.90
13072;DHT22;6602;58.934;11.166;2023-04-24T20:09:56;9.50;99.90
13072;DHT22;6602;58.934;11.166;2023-04-24T20:14:57;9.40;99.90
13072;DHT22;6602;58.934;11.166;2023-04-24T20:19:57;9.40;99.90
13072;DHT22;6602;58.934;11.166;2023-04-24T20:24:58;9.40;99.90
13072;DHT22;6602;58.934;11.166;2023-04-24T20:30:06;9.40;99.90
13072;DHT22;6602;58.934;11.166;2023-04-24T20:35:12;9.40;99.90
13072;DHT22;6602;58.934;11.166;2023-04-24T20:40:13;9.40;99.90
13072;DHT22;6602;58.934;11.166;2023-04-24T20:45:14;9.40;99.90
13072;DHT22;6602;58.934;11.166;2023-04-24T20:50:18;9.40;99.90
13072;DHT22;6602;58.934;11.166;2023-04-24T20:55:20;9.50;99.90
13072;DHT22;6602;58.934;11.166;2023-04-24T21:00:22;9.50;99.90
13072;DHT22;6602;58.934;11.166;2023-04-24T21:05:25;9.50;99.90
13072;DHT22;6602;58.934;11.166;2023-04-24T21:10:26;9.50;99.90
13072;DHT22;6602;58.934;11.166;2023-04-24T21:15:27;9.60;99.90
13072;DHT22;6602;58.934;11.166;2023-04-24T21:20:29;9.60;99.90
13072;DHT22;6602;58.934;11.166;2023-04-24T21:25:30;9.50;99.90
13072;DHT22;6602;58.934;11.166;2023-04-24T21:30:34;9.50;99.90
13072;DHT22;6602;58.934;11.166;2023-04-24T21:35:36;9.50;99.90
13072;DHT22;6602;58.934;11.166;2023-04-24T21:40:37;9.50;99.90
13072;DHT22;6602;58.934;11.166;2023-04-24T21:45:38;9.50;99.90
13072;DHT22;6602;58.934;11.166;2023-04-24T21:50:41;9.60;99.90
13072;DHT22;6602;58.934;11.166;2023-04-24T21:55:43;9.60;99.90
13072;DHT22;6602;58.934;11.166;2023-04-24T22:00:51;9.60;99.90
13072;DHT22;6602;58.934;11.166;2023-04-24T22:05:56;9.60;99.90
13072;DHT22;6602;58.934;11.166;2023-04-24T22:10:57;9.60;99.90
13072;DHT22;6602;58.934;11.166;2023-04-24T22:16:01;9.70;99.90
13072;DHT22;6602;58.934;11.166;2023-04-24T22:21:03;9.70;99.90
13072;DHT22;6602;58.934;11.166;2023-04-24T22:26:04;9.80;99.90
13072;DHT22;6602;58.934;11.166;2023-04-24T22:31:06;9.80;99.90
13072;DHT22;6602;58.934;11.166;2023-04-24T22:36:07;9.80;99.90
13072;DHT22;6602;58.934;11.166;2023-04-24T22:41:11;9.80;99.90
13072;DHT22;6602;58.934;11.166;2023-04-24T22:46:12;9.80;99.90
13072;DHT22;6602;58.934;11.166;2023-04-24T22:51:13;9.80;99.90
13072;DHT22;6602;58.934;11.166;2023-04-24T22:56:14;9.90;99.90
13072;DHT22;6602;58.934;11.166;2023-04-24T23:01:15;9.90;99.90
13072;DHT22;6602;58.934;11.166;2023-04-24T23:06:20;9.90;99.90
13072;DHT22;6602;58.934;11.166;2023-04-24T23:11:21;9.90;99.90
13072;DHT22;6602;58.934;11.166;2023-04-24T23:16:25;9.90;99.90
13072;DHT22;6602;58.934;11.166;2023-04-24T23:21:27;9.90;99.90
13072;DHT22;6602;58.934;11.166;2023-04-24T23:26:28;9.90;99.90
13072;DHT22;6602;58.934;11.166;2023-04-24T23:31:29;9.90;99.90
13072;DHT22;6602;58.934;11.166;2023-04-24T23:36:30;9.90;99.90
13072;DHT22;6602;58.934;11.166;2023-04-24T23:41:34;9.90;99.90
13072;DHT22;6602;58.934;11.166;2023-04-24T23:46:39;9.90;99.90
13072;DHT22;6602;58.934;11.166;2023-04-24T23:51:43;9.90;99.90
13072;DHT22;6602;58.934;11.166;2023-04-24T23:56:45;9.90;99.90
